createdAt,value
2022-11-19T06:02:40.279Z,7.95
2022-11-19T06:08:01.247Z,7.50
2022-11-19T06:18:43.050Z,6.55
2022-11-19T06:24:04.081Z,6.72
2022-11-19T06:29:25.692Z,6.93
2022-11-19T06:34:46.774Z,7.03
2022-11-19T06:40:08.524Z,7.88
2022-11-19T06:45:29.301Z,6.88
2022-11-19T06:50:50.613Z,7.43
2022-11-19T06:56:11.644Z,6.75
2022-11-19T07:01:32.571Z,7.15
2022-11-19T07:06:53.267Z,6.40
2022-11-19T07:12:14.249Z,5.60
2022-11-19T07:17:35.612Z,6.20
2022-11-19T07:22:59.084Z,5.90
2022-11-19T07:28:20.761Z,5.80
2022-11-19T07:33:41.683Z,7.15
2022-11-19T07:39:04.337Z,5.45
2022-11-19T07:44:25.197Z,6.38
2022-11-19T07:49:45.914Z,4.95
2022-11-19T07:55:07.457Z,4.90
2022-11-19T08:00:28.513Z,4.65
2022-11-19T08:05:49.536Z,4.40
2022-11-19T08:11:12.756Z,4.90
2022-11-19T08:16:52.245Z,4.45
2022-11-19T08:22:13.541Z,3.75
2022-11-19T08:27:34.863Z,4.15
2022-11-19T08:38:16.584Z,3.72
2022-11-19T08:43:37.532Z,4.05
2022-11-19T08:48:58.803Z,3.72
2022-11-19T08:54:19.846Z,4.07
2022-11-19T08:59:41.226Z,3.97
2022-11-19T09:05:02.302Z,3.70
2022-11-19T09:10:23.327Z,3.75
2022-11-19T09:15:44.169Z,3.35
2022-11-19T09:21:06.046Z,3.90
2022-11-19T09:26:26.696Z,3.83
2022-11-19T09:31:47.601Z,4.20
2022-11-19T09:37:08.986Z,4.47
2022-11-19T09:42:42.941Z,4.18
2022-11-19T09:48:17.130Z,4.10
2022-11-19T09:53:57.444Z,3.92
2022-11-19T09:59:39.140Z,4.03
2022-11-19T10:04:59.852Z,4.65
2022-11-19T10:10:42.311Z,4.20
2022-11-19T10:16:19.879Z,4.05
2022-11-19T10:21:49.778Z,4.60
2022-11-19T10:27:24.606Z,3.88
2022-11-19T10:33:12.879Z,4.50
2022-11-19T10:38:40.091Z,4.45
2022-11-19T10:44:39.947Z,4.00
2022-11-19T10:50:01.012Z,4.13
2022-11-19T10:55:44.159Z,3.80
2022-11-19T11:01:14.872Z,4.57
2022-11-19T11:06:58.601Z,4.07
2022-11-19T11:12:41.109Z,4.00
2022-11-19T11:18:08.046Z,4.40
2022-11-19T11:23:30.302Z,4.35
2022-11-19T11:28:58.091Z,3.90
2022-11-19T11:34:31.474Z,5.07
2022-11-19T11:39:58.023Z,4.28
2022-11-19T11:45:36.296Z,4.20
2022-11-19T11:50:57.425Z,4.63
2022-11-19T11:56:21.388Z,4.95
2022-11-19T12:01:43.055Z,4.15
2022-11-19T12:08:01.382Z,4.93
2022-11-19T12:13:47.410Z,4.57
2022-11-19T12:19:41.288Z,5.53
2022-11-19T12:25:31.960Z,5.28
2022-11-19T12:31:31.484Z,5.32
2022-11-19T12:36:56.737Z,5.18
2022-11-19T12:42:27.141Z,5.90
2022-11-19T12:48:06.414Z,6.72
2022-11-19T12:53:43.216Z,5.90
2022-11-19T12:59:31.728Z,5.82
2022-11-19T13:04:57.895Z,5.70
2022-11-19T13:10:24.495Z,6.18
2022-11-19T13:15:58.858Z,6.47
2022-11-19T13:22:04.858Z,6.15
2022-11-19T13:27:28.453Z,5.80
2022-11-19T13:33:17.948Z,5.78
2022-11-19T13:38:50.558Z,6.38
2022-11-19T13:44:30.108Z,6.10
2022-11-19T13:50:11.592Z,5.50
2022-11-19T13:55:36.648Z,6.10
2022-11-19T14:01:26.808Z,5.80
2022-11-19T14:07:22.916Z,6.13
2022-11-19T14:13:05.079Z,5.70
2022-11-19T14:19:01.054Z,6.00
2022-11-19T14:24:43.629Z,6.22
2022-11-19T14:30:12.047Z,6.22
2022-11-19T14:35:36.212Z,6.35
2022-11-19T14:41:17.760Z,5.80
2022-11-19T14:46:44.973Z,6.20
2022-11-19T14:52:20.439Z,6.20
2022-11-19T14:57:42.875Z,6.43
2022-11-19T15:03:07.638Z,7.43
2022-11-19T15:08:43.087Z,6.90
2022-11-19T15:14:28.705Z,7.07
2022-11-19T15:20:28.633Z,6.43
2022-11-19T15:26:15.720Z,6.97
2022-11-19T15:31:45.920Z,7.10
2022-11-19T15:37:17.133Z,7.75
2022-11-19T15:42:48.177Z,7.13
2022-11-19T15:48:35.106Z,7.38
2022-11-19T15:54:11.491Z,8.45
2022-11-19T15:59:38.022Z,8.00
2022-11-19T16:04:58.776Z,8.57
2022-11-19T16:10:33.548Z,8.32
2022-11-19T16:16:13.224Z,8.75
2022-11-19T16:21:38.734Z,8.45
2022-11-19T16:27:02.598Z,9.25
2022-11-19T16:32:25.915Z,8.93
2022-11-19T16:37:51.965Z,8.90
2022-11-19T16:43:13.740Z,8.77
2022-11-19T16:54:11.348Z,8.82
2022-11-19T16:59:33.859Z,9.27
2022-11-19T17:04:56.457Z,9.23
2022-11-19T17:10:30.534Z,7.78
2022-11-19T17:15:52.184Z,8.40
2022-11-19T17:21:27.853Z,8.30
2022-11-19T17:26:49.721Z,8.25
2022-11-19T17:32:10.906Z,7.78
2022-11-19T17:37:31.895Z,7.40
2022-11-19T17:43:11.236Z,6.82
2022-11-19T17:48:32.062Z,7.30
2022-11-19T17:53:53.353Z,7.72
2022-11-19T17:59:14.273Z,8.20
2022-11-19T18:04:35.146Z,6.95
2022-11-19T18:09:55.965Z,7.75
2022-11-19T18:15:19.430Z,7.32
2022-11-19T18:20:40.208Z,6.88
2022-11-19T18:26:00.971Z,8.75
2022-11-19T18:31:26.199Z,6.95
2022-11-19T18:36:47.679Z,8.02
2022-11-19T18:47:31.015Z,7.85
2022-11-19T18:52:51.954Z,8.23
2022-11-19T18:58:14.771Z,8.18
2022-11-19T19:03:35.971Z,7.40
2022-11-19T19:08:56.687Z,7.25
2022-11-19T19:14:17.731Z,7.25
2022-11-19T19:19:39.065Z,7.20
2022-11-19T19:24:59.950Z,7.40
2022-11-19T19:30:20.758Z,7.55
2022-11-19T19:35:41.805Z,7.20
2022-11-19T19:41:04.657Z,7.38
2022-11-19T19:46:26.120Z,7.32
2022-11-19T19:51:47.355Z,7.47
2022-11-19T19:57:08.070Z,7.05
2022-11-19T20:02:29.051Z,7.10
2022-11-19T20:07:49.846Z,6.78
2022-11-19T20:13:28.730Z,6.57
2022-11-19T20:18:51.405Z,6.40
2022-11-19T20:24:13.540Z,6.88
2022-11-19T20:29:34.457Z,6.53
2022-11-19T20:34:56.476Z,6.97
2022-11-19T20:40:17.565Z,6.43
2022-11-19T20:45:38.560Z,5.80
2022-11-19T20:50:59.364Z,6.43
2022-11-19T20:56:20.368Z,6.75
2022-11-19T21:01:41.749Z,6.55
2022-11-19T21:07:02.691Z,7.03
2022-11-19T21:12:24.031Z,7.72
2022-11-19T21:17:45.220Z,7.25
2022-11-19T21:23:05.850Z,6.80
2022-11-19T21:28:26.756Z,7.57
2022-11-19T21:33:47.694Z,7.40
2022-11-19T21:39:10.115Z,7.70
2022-11-19T21:44:30.927Z,7.50
2022-11-19T21:49:53.534Z,7.80
2022-11-19T21:55:14.462Z,7.75
2022-11-19T22:00:35.250Z,7.82
2022-11-19T22:06:03.235Z,7.43
2022-11-19T22:11:30.059Z,8.20
2022-11-19T22:16:51.856Z,7.15
2022-11-19T22:22:12.918Z,7.30
2022-11-19T22:27:33.689Z,7.80
2022-11-19T22:32:54.651Z,7.53
2022-11-19T22:38:15.713Z,7.72
